SKIB

Details ICAO SKIB (IBE)
Name PERALES
Region Colombia
Timezone America/Bogota (UTC-5.0)
Plans Departing 11
Arriving 11
Stats Elevation 2,999 ft / 914 m (AMSL)
Location 4.421609° -75.133300°
Runways 1
Magnetic Variation 6.564° W
Sunrise 2017-12-14 11:00:41 UTC / 2017-12-14 06:00:41 Local
Sunset 2017-12-14 22:52:44 UTC / 2017-12-14 17:52:44 Local
Advertisement - Login to hide

Runways

ID Width Length Bearing (true) Bearing (mag) Surface Threshold Offset Overrun Length
14 98 ft / 30 m 5,898 ft / 1,798 m 131.34° 137.90° Asphalt 0 ft / 0 m 0 ft / 0 m
32 98 ft / 30 m 5,898 ft / 1,798 m 311.34° 317.90° Asphalt 0 ft / 0 m 0 ft / 0 m

Map

Weather


0- 5 10 15 20 25 30 35+ Temperature / ° C

Clouds and Precipitation
Forecast for 2017-12-15 00:00 UTC. Updated 2 hours ago

Ground ~20,000 ft ~40,000 ft Winds

METAR

SKIB 150000Z 30003KT 9999 FEW030 23/22 A3000

TAF

Not found

Frequencies

Tower 118.30 MHz TWR
Approach 119.50 MHz BOGOTA APP
Warning: Do not use this data for real-world aviation or navigation. No guarantee of current accuracy is given.